Time;durP1;ratioP1;P1;durP2;ratioP2;P2;SDS_P1;SDS_P2;PMS_P1;PMS_P2;Temp;Humidity;BMP_temperature;BMP_pressure;BME280_temperature;BME280_humidity;BME280_pressure;Samples;Min_cycle;Max_cycle;Signal;HPM_P1;HPM_P2
2023/04/19 00:01:24;;;;;;;18.17;10.23;;;;;;;10.95;32.31;100720.28;5092479;28;20036;-63
2023/04/19 00:03:49;;;;;;;19.70;10.82;;;;;;;11.01;32.37;100727.91;5093069;28;20092;-62
2023/04/19 00:06:16;;;;;;;20.40;11.73;;;;;;;11.14;32.20;100735.09;5092826;28;20103;-62
2023/04/19 00:08:42;;;;;;;20.23;9.70;;;;;;;11.11;31.95;100700.47;5092625;28;20039;-62
2023/04/19 00:11:08;;;;;;;25.23;13.10;;;;;;;11.10;32.51;100738.97;5092603;28;20028;-64
2023/04/19 00:13:34;;;;;;;26.98;13.50;;;;;;;10.99;32.67;100743.22;5075082;28;20139;-62
2023/04/19 00:16:00;;;;;;;26.30;12.98;;;;;;;11.05;32.70;100741.94;5092616;28;20111;-64
2023/04/19 00:18:25;;;;;;;29.73;15.38;;;;;;;10.98;32.86;100744.19;5074762;28;20031;-63
2023/04/19 00:20:51;;;;;;;27.63;13.57;;;;;;;11.02;32.67;100748.38;5092372;28;20060;-62
2023/04/19 00:23:17;;;;;;;18.42;11.15;;;;;;;10.99;32.73;100747.75;5092877;28;20028;-64
2023/04/19 00:25:42;;;;;;;21.15;10.25;;;;;;;11.03;32.50;100751.91;5092969;28;20063;-63
2023/04/19 00:28:07;;;;;;;17.90;10.90;;;;;;;10.99;32.72;100731.66;5074596;28;20028;-63
2023/04/19 00:30:33;;;;;;;18.65;10.57;;;;;;;11.09;32.84;100739.91;5092061;28;20031;-64
2023/04/19 00:32:59;;;;;;;16.27;8.95;;;;;;;10.94;32.43;100712.34;5092521;28;20032;-63
2023/04/19 00:35:24;;;;;;;13.50;9.30;;;;;;;11.22;32.12;100740.78;5092408;28;20446;-63
2023/04/19 00:37:50;;;;;;;15.13;9.13;;;;;;;11.19;32.15;100732.97;5092260;28;20039;-63
2023/04/19 00:40:15;;;;;;;13.60;9.13;;;;;;;11.01;32.81;100738.63;5092498;28;20451;-63
2023/04/19 00:42:41;;;;;;;12.77;8.75;;;;;;;10.98;32.56;100733.47;5074932;28;20135;-62
2023/04/19 00:45:07;;;;;;;17.92;9.63;;;;;;;11.10;32.73;100744.34;5092218;28;20028;-63
2023/04/19 00:47:34;;;;;;;16.23;9.63;;;;;;;10.92;33.17;100741.94;5092249;28;20032;-63
2023/04/19 00:50:03;;;;;;;16.08;9.60;;;;;;;11.08;32.77;100740.88;5092197;28;20054;-63
2023/04/19 00:52:30;;;;;;;15.50;8.95;;;;;;;10.92;32.76;100747.28;5092453;28;20032;-62
2023/04/19 00:54:57;;;;;;;13.27;9.05;;;;;;;10.92;32.95;100747.28;5074386;28;20028;-63
2023/04/19 00:57:24;;;;;;;17.77;9.90;;;;;;;10.87;32.92;100747.59;5091866;28;20439;-63
2023/04/19 00:59:50;;;;;;;13.45;9.23;;;;;;;10.93;32.72;100742.78;5092057;28;20120;-62
2023/04/19 01:02:15;;;;;;;17.60;9.55;;;;;;;10.85;32.86;100746.84;5092985;28;20115;-62
2023/04/19 01:04:41;;;;;;;14.95;8.82;;;;;;;10.77;32.97;100738.47;5076901;28;20043;-65
2023/04/19 01:07:07;;;;;;;15.77;9.23;;;;;;;10.91;32.69;100751.78;5096112;28;20020;-63
2023/04/19 01:09:33;;;;;;;15.88;9.25;;;;;;;10.80;32.70;100748.09;5077892;28;20104;-63
2023/04/19 01:12:01;;;;;;;19.15;9.25;;;;;;;10.68;32.93;100753.31;5096096;28;20118;-63
2023/04/19 01:14:26;;;;;;;15.10;8.70;;;;;;;10.64;33.18;100749.13;5095765;28;20085;-63
2023/04/19 01:16:53;;;;;;;14.27;9.50;;;;;;;10.60;33.17;100744.91;5095761;28;20039;-62
2023/04/19 01:19:20;;;;;;;13.02;9.73;;;;;;;10.63;32.84;100753.63;5095694;28;20028;-63
2023/04/19 01:21:45;;;;;;;15.02;8.85;;;;;;;10.43;33.79;100754.06;5095998;28;20032;-62
2023/04/19 01:24:11;;;;;;;17.08;9.65;;;;;;;10.30;34.10;100756.66;5095596;28;20093;-63
2023/04/19 01:26:36;;;;;;;13.48;8.52;;;;;;;10.37;33.66;100752.63;5095552;28;20066;-62
2023/04/19 01:29:02;;;;;;;13.02;9.48;;;;;;;10.40;33.54;100751.56;5095229;28;20111;-62
2023/04/19 01:31:28;;;;;;;17.45;9.45;;;;;;;10.44;33.74;100759.34;5095305;28;20103;-63
2023/04/19 01:33:53;;;;;;;14.90;8.50;;;;;;;10.37;33.33;100758.00;5095461;28;20039;-63
2023/04/19 01:36:19;;;;;;;18.52;9.23;;;;;;;10.32;33.81;100744.03;5095806;28;20095;-63
2023/04/19 01:38:46;;;;;;;14.15;8.63;;;;;;;10.19;34.21;100752.84;5095159;28;20450;-63
2023/04/19 01:41:12;;;;;;;15.90;8.20;;;;;;;10.19;34.28;100760.00;5094765;28;20083;-62
2023/04/19 01:43:38;;;;;;;18.33;8.70;;;;;;;10.33;33.87;100754.66;5077656;28;20473;-63
2023/04/19 01:46:04;;;;;;;13.70;9.15;;;;;;;10.20;34.21;100751.03;5094933;28;20036;-62
2023/04/19 01:48:29;;;;;;;13.02;9.00;;;;;;;10.04;34.54;100744.00;5095024;28;20467;-63
2023/04/19 01:50:55;;;;;;;15.05;9.35;;;;;;;10.20;34.10;100757.25;5095512;28;20031;-65
2023/04/19 01:53:20;;;;;;;14.55;8.52;;;;;;;10.24;34.20;100749.03;5094469;28;20036;-62
2023/04/19 01:55:46;;;;;;;12.88;8.77;;;;;;;10.19;34.42;100750.19;5094476;28;20070;-62
2023/04/19 01:58:12;;;;;;;14.95;9.27;;;;;;;10.13;34.18;100753.25;5094242;28;20172;-64
2023/04/19 02:00:37;;;;;;;15.73;8.77;;;;;;;10.04;34.91;100740.44;5095137;28;20040;-62
2023/04/19 02:03:04;;;;;;;12.38;8.82;;;;;;;10.09;34.82;100748.19;5077328;28;20024;-63
2023/04/19 02:05:29;;;;;;;15.55;8.70;;;;;;;10.14;34.37;100746.06;5077184;28;20039;-64
2023/04/19 02:07:55;;;;;;;13.48;8.45;;;;;;;10.03;34.80;100738.72;5094099;28;20507;-64
2023/04/19 02:10:20;;;;;;;18.02;8.90;;;;;;;9.90;34.92;100734.19;5095027;28;20374;-64
2023/04/19 02:12:46;;;;;;;12.65;8.75;;;;;;;9.99;34.75;100737.22;5094332;28;20366;-63
2023/04/19 02:15:12;;;;;;;13.40;8.63;;;;;;;10.01;34.72;100744.19;5093773;28;20032;-62
2023/04/19 02:17:39;;;;;;;19.08;9.52;;;;;;;10.24;34.28;100744.50;5094264;28;20039;-62
2023/04/19 02:20:07;;;;;;;11.73;8.15;;;;;;;10.04;34.91;100733.28;5093686;28;20075;-62
2023/04/19 02:22:32;;;;;;;13.15;8.60;;;;;;;9.80;35.36;100710.78;5093385;28;20077;-63
2023/04/19 02:24:58;;;;;;;16.42;8.52;;;;;;;10.06;35.33;100743.88;5094578;28;20405;-63
2023/04/19 02:27:23;;;;;;;17.23;9.05;;;;;;;10.18;34.99;100743.13;5094282;28;20028;-62
2023/04/19 02:29:49;;;;;;;16.02;8.75;;;;;;;10.13;34.89;100742.56;5094725;28;20431;-65
2023/04/19 02:32:15;;;;;;;14.90;8.68;;;;;;;10.09;34.93;100743.69;5093332;28;20282;-63
2023/04/19 02:34:40;;;;;;;13.27;9.20;;;;;;;10.06;35.46;100754.59;5094376;28;20094;-63
2023/04/19 02:37:06;;;;;;;16.67;9.02;;;;;;;10.15;34.80;100748.66;5094712;28;20416;-63
2023/04/19 02:39:33;;;;;;;13.32;8.57;;;;;;;10.18;34.92;100753.81;5093942;28;20044;-62
2023/04/19 02:41:59;;;;;;;14.77;8.23;;;;;;;10.16;35.10;100754.84;5094204;28;20047;-63
2023/04/19 02:44:26;;;;;;;16.48;8.95;;;;;;;10.22;35.08;100758.97;5094359;28;20036;-62
2023/04/19 02:46:52;;;;;;;13.90;8.43;;;;;;;10.19;35.14;100766.25;5094640;28;20092;-62
2023/04/19 02:49:19;;;;;;;16.65;9.02;;;;;;;10.26;34.88;100761.34;5093634;28;20446;-63
2023/04/19 02:51:46;;;;;;;15.70;8.68;;;;;;;10.30;35.15;100762.88;5094223;28;20506;-62
2023/04/19 02:54:12;;;;;;;17.83;9.73;;;;;;;10.36;34.94;100766.09;5059831;28;20024;-62
2023/04/19 02:56:38;;;;;;;15.50;8.70;;;;;;;10.37;34.94;100768.69;5093835;28;20024;-62
2023/04/19 02:59:04;;;;;;;15.63;8.93;;;;;;;10.33;34.92;100762.66;5093771;28;20028;-62
2023/04/19 03:01:30;;;;;;;16.73;9.18;;;;;;;10.35;34.67;100762.56;5076065;28;20046;-63
2023/04/19 03:03:56;;;;;;;16.60;9.07;;;;;;;10.37;35.09;100758.00;5093772;28;20028;-63
2023/04/19 03:06:22;;;;;;;18.40;8.40;;;;;;;10.53;34.29;100765.91;5076894;28;20035;-62
2023/04/19 03:08:47;;;;;;;14.73;8.35;;;;;;;10.65;34.15;100763.38;5093382;28;20032;-63
2023/04/19 03:11:15;;;;;;;15.32;8.82;;;;;;;10.58;34.38;100765.59;5093612;28;20020;-65
2023/04/19 03:13:40;;;;;;;13.07;8.35;;;;;;;10.52;34.57;100756.16;5093502;28;20320;-62
2023/04/19 03:16:07;;;;;;;17.58;8.70;;;;;;;10.59;34.29;100756.59;5093326;28;20038;-63
2023/04/19 03:18:33;;;;;;;20.00;8.32;;;;;;;10.68;34.02;100760.47;5092999;28;20032;-63
2023/04/19 03:20:59;;;;;;;11.43;8.13;;;;;;;10.70;33.88;100761.25;5093336;28;20035;-64
2023/04/19 03:23:27;;;;;;;16.20;8.95;;;;;;;10.68;34.11;100761.34;5093861;28;20111;-65
2023/04/19 03:25:52;;;;;;;11.82;8.00;;;;;;;10.81;33.66;100763.22;5093578;28;20538;-62
2023/04/19 03:28:18;;;;;;;14.07;8.07;;;;;;;10.69;33.88;100765.75;5092565;28;20206;-64
2023/04/19 03:30:44;;;;;;;17.42;8.50;;;;;;;10.64;33.96;100762.53;5093461;28;20051;-63
2023/04/19 03:33:09;;;;;;;16.60;8.45;;;;;;;10.73;33.92;100764.59;5093190;28;20354;-63
2023/04/19 03:35:35;;;;;;;13.35;8.30;;;;;;;10.73;34.01;100769.94;5093226;28;20054;-63
2023/04/19 03:38:00;;;;;;;17.38;8.43;;;;;;;10.90;33.67;100771.50;5093002;28;20028;-62
2023/04/19 03:40:26;;;;;;;17.48;8.52;;;;;;;10.80;33.87;100773.06;5093334;28;20196;-63
2023/04/19 03:42:51;;;;;;;16.88;7.97;;;;;;;10.78;34.13;100761.59;5092647;28;20491;-63
2023/04/19 03:45:17;;;;;;;16.65;7.95;;;;;;;10.76;34.16;100764.38;5092683;28;20716;-62
2023/04/19 03:47:43;;;;;;;16.63;8.25;;;;;;;10.88;33.99;100767.22;5092591;28;20032;-63
2023/04/19 03:50:08;;;;;;;12.95;7.90;;;;;;;11.05;33.64;100774.94;5075175;28;20031;-63
2023/04/19 03:52:34;;;;;;;14.68;8.32;;;;;;;11.27;33.12;100767.28;5093291;28;20035;-63
2023/04/19 03:55:00;;;;;;;21.38;9.02;;;;;;;11.37;32.53;100767.53;5093303;28;20032;-63
2023/04/19 03:57:25;;;;;;;12.73;8.27;;;;;;;11.39;32.80;100765.59;5075355;28;20105;-63
2023/04/19 03:59:51;;;;;;;13.45;8.20;;;;;;;11.56;32.81;100767.09;5092638;28;20031;-64
2023/04/19 04:02:16;;;;;;;13.10;8.48;;;;;;;11.65;32.63;100771.81;5093173;28;20430;-62
2023/04/19 04:04:42;;;;;;;13.98;8.15;;;;;;;11.68;32.22;100743.91;5092832;28;20100;-63
2023/04/19 04:07:07;;;;;;;18.35;8.45;;;;;;;12.02;31.61;100779.97;5092490;28;20053;-63
2023/04/19 04:09:33;;;;;;;12.27;8.20;;;;;;;12.06;31.69;100770.72;5092216;28;20052;-63
2023/04/19 04:11:58;;;;;;;14.25;8.70;;;;;;;12.24;31.36;100769.50;5093147;28;20032;-63
2023/04/19 04:14:24;;;;;;;17.25;8.57;;;;;;;12.43;31.24;100771.72;5075079;28;20024;-62
2023/04/19 04:16:49;;;;;;;14.40;8.63;;;;;;;12.53;30.96;100772.75;5092851;28;20032;-64
2023/04/19 04:19:16;;;;;;;18.58;8.45;;;;;;;12.81;30.72;100775.22;5075074;28;20036;-64
2023/04/19 04:21:42;;;;;;;14.85;7.82;;;;;;;13.12;29.93;100772.88;5092632;28;20028;-63
2023/04/19 04:24:08;;;;;;;12.85;8.27;;;;;;;13.81;29.03;100774.78;5092685;28;20025;-64
2023/04/19 04:26:38;;;;;;;16.17;8.20;;;;;;;14.14;28.27;100759.56;5092414;28;20060;-63
2023/04/19 04:29:04;;;;;;;12.65;7.93;;;;;;;14.50;27.78;100765.66;5091925;28;20362;-62
2023/04/19 04:31:30;;;;;;;15.65;8.20;;;;;;;14.78;27.60;100784.94;5093003;28;20028;-63
2023/04/19 04:33:56;;;;;;;19.83;8.73;;;;;;;14.98;26.83;100779.72;5075206;28;20103;-63
2023/04/19 04:36:21;;;;;;;15.95;7.80;;;;;;;15.24;27.04;100773.97;5092182;28;20110;-63
2023/04/19 04:38:47;;;;;;;12.27;8.52;;;;;;;15.34;26.59;100785.66;5092710;28;20120;-63
2023/04/19 04:41:13;;;;;;;17.55;8.48;;;;;;;15.77;26.37;100782.94;5096711;28;20363;-63
2023/04/19 04:43:38;;;;;;;17.58;8.48;;;;;;;16.56;25.04;100775.13;5096681;28;20044;-63
2023/04/19 04:46:04;;;;;;;18.25;8.88;;;;;;;16.70;24.70;100781.97;5096375;28;20035;-63
2023/04/19 04:48:30;;;;;;;12.80;8.48;;;;;;;17.19;24.23;100782.03;5095997;28;20031;-63
2023/04/19 04:50:56;;;;;;;16.48;9.15;;;;;;;17.01;24.10;100780.03;5096282;28;20036;-63
2023/04/19 04:53:24;;;;;;;14.07;8.30;;;;;;;16.59;24.65;100783.81;5096215;28;20039;-64
2023/04/19 04:55:51;;;;;;;19.20;8.07;;;;;;;16.29;25.11;100784.75;5096463;28;20111;-63
2023/04/19 04:58:17;;;;;;;15.95;8.15;;;;;;;16.12;25.55;100788.97;5078078;28;20439;-63
2023/04/19 05:00:42;;;;;;;16.17;8.70;;;;;;;16.09;25.49;100781.97;5096385;28;20040;-63
2023/04/19 05:03:08;;;;;;;24.60;8.57;;;;;;;16.05;25.42;100761.63;5096312;28;20451;-62
2023/04/19 05:05:33;;;;;;;16.83;8.35;;;;;;;16.42;24.95;100793.47;5095944;28;20043;-63
2023/04/19 05:07:59;;;;;;;21.35;8.60;;;;;;;16.37;25.37;100787.59;5095791;28;20059;-62
2023/04/19 05:10:25;;;;;;;18.52;8.50;;;;;;;16.44;25.10;100796.88;5096056;28;20028;-64
2023/04/19 05:12:51;;;;;;;19.15;8.52;;;;;;;17.15;24.34;100797.69;5095952;28;20035;-63
2023/04/19 05:15:16;;;;;;;18.20;8.57;;;;;;;18.42;22.66;100797.47;5095533;28;20410;-63
2023/04/19 05:17:42;;;;;;;17.35;8.25;;;;;;;18.22;22.79;100795.72;5095465;28;20462;-64
2023/04/19 05:20:08;;;;;;;14.15;8.05;;;;;;;18.64;22.48;100788.91;5095984;28;20040;-64
2023/04/19 05:22:33;;;;;;;15.88;8.20;;;;;;;19.82;21.16;100800.63;5077893;28;20128;-64
2023/04/19 05:24:59;;;;;;;19.05;8.05;;;;;;;19.96;20.95;100793.75;5096083;28;20074;-64
2023/04/19 05:27:24;;;;;;;15.73;7.85;;;;;;;19.79;21.09;100792.78;5095372;28;20059;-64
2023/04/19 05:29:50;;;;;;;18.20;8.02;;;;;;;20.28;20.42;100803.06;5095324;28;20096;-64
2023/04/19 05:32:16;;;;;;;16.30;8.38;;;;;;;21.79;19.13;100808.56;5095777;28;20111;-63
2023/04/19 05:34:41;;;;;;;17.38;8.43;;;;;;;23.16;17.59;100801.06;5077865;28;20419;-63
2023/04/19 05:37:07;;;;;;;15.98;8.68;;;;;;;25.00;16.35;100810.59;5095089;28;20024;-64
2023/04/19 05:39:33;;;;;;;13.95;8.05;;;;;;;27.02;14.39;100797.25;5061002;28;20097;-64
2023/04/19 05:41:59;;;;;;;18.88;8.88;;;;;;;28.92;12.90;100802.97;5095623;28;20028;-63
2023/04/19 05:44:24;;;;;;;16.27;8.48;;;;;;;30.13;11.42;100765.16;5076620;28;20035;-63
2023/04/19 05:46:50;;;;;;;14.05;8.00;;;;;;;31.06;10.72;100800.88;5095237;28;20113;-66
2023/04/19 05:49:15;;;;;;;17.30;8.10;;;;;;;31.19;11.22;100808.16;5094921;28;20465;-64
2023/04/19 05:51:41;;;;;;;11.93;7.38;;;;;;;31.60;10.42;100786.19;5077683;28;20032;-64
2023/04/19 05:54:11;;;;;;;18.23;7.85;;;;;;;32.11;10.34;100785.66;5095201;28;20036;-64
2023/04/19 05:56:37;;;;;;;16.27;7.60;;;;;;;33.38;9.73;100810.75;5095196;28;20032;-65
2023/04/19 05:59:02;;;;;;;10.90;7.70;;;;;;;33.52;9.07;100800.19;5094770;28;20166;-64
2023/04/19 06:01:28;;;;;;;14.60;7.13;;;;;;;33.14;9.19;100791.50;5094863;28;20109;-64
2023/04/19 06:03:53;;;;;;;12.70;7.50;;;;;;;33.87;9.00;100801.78;5094983;28;20054;-65
2023/04/19 06:06:21;;;;;;;15.43;7.90;;;;;;;34.73;8.53;100811.53;5095006;28;20032;-64
2023/04/19 06:08:46;;;;;;;16.60;7.25;;;;;;;33.82;8.67;100798.94;5095078;28;20081;-65
2023/04/19 06:11:12;;;;;;;14.57;6.80;;;;;;;33.49;8.85;100804.31;5076659;28;20112;-65
2023/04/19 06:13:37;;;;;;;11.70;6.75;;;;;;;33.98;8.54;100809.22;5094733;28;20457;-65
2023/04/19 06:16:03;;;;;;;12.18;7.05;;;;;;;34.89;8.12;100806.09;5095383;28;20035;-65
2023/04/19 06:18:29;;;;;;;13.23;7.40;;;;;;;36.40;7.34;100797.63;5095064;28;20031;-66
2023/04/19 06:20:54;;;;;;;15.65;6.72;;;;;;;37.01;6.94;100784.97;5094375;28;20034;-64
2023/04/19 06:23:20;;;;;;;13.40;7.10;;;;;;;37.83;6.52;100793.53;5094729;28;20455;-65
2023/04/19 06:25:47;;;;;;;13.38;6.60;;;;;;;38.32;6.08;100805.91;5094715;28;20358;-65
2023/04/19 06:28:13;;;;;;;13.27;6.60;;;;;;;38.17;6.28;100796.50;5094541;28;20043;-65
2023/04/19 06:30:39;;;;;;;11.38;6.47;;;;;;;38.13;5.97;100801.00;5094068;28;20036;-66
2023/04/19 06:33:04;;;;;;;11.43;6.53;;;;;;;37.70;6.36;100803.34;5094755;28;20111;-66
2023/04/19 06:35:31;;;;;;;10.52;6.03;;;;;;;37.80;6.63;100802.47;5094214;28;20119;-66
2023/04/19 06:37:56;;;;;;;7.88;5.90;;;;;;;37.68;6.01;100808.38;5094481;28;20116;-65
2023/04/19 06:40:22;;;;;;;12.40;6.20;;;;;;;36.84;6.44;100801.09;5093994;28;20070;-66
2023/04/19 06:42:47;;;;;;;8.02;5.55;;;;;;;36.34;6.45;100790.38;5094143;28;20143;-66
2023/04/19 06:45:14;;;;;;;6.75;5.72;;;;;;;36.59;6.69;100799.94;5094565;28;20084;-64
2023/04/19 06:47:40;;;;;;;10.00;6.30;;;;;;;37.16;6.41;100812.03;5094595;28;20131;-66
2023/04/19 06:50:06;;;;;;;13.43;5.63;;;;;;;38.01;5.67;100803.25;5094048;28;20103;-65
2023/04/19 06:52:32;;;;;;;7.35;5.00;;;;;;;38.85;5.52;100782.13;5094127;28;20036;-66
2023/04/19 06:54:57;;;;;;;7.50;5.28;;;;;;;39.11;4.74;100810.75;5094601;28;20457;-64
2023/04/19 06:57:23;;;;;;;11.55;5.07;;;;;;;38.97;5.03;100801.38;5094207;28;20031;-65
2023/04/19 06:59:49;;;;;;;8.73;4.68;;;;;;;39.79;4.37;100810.13;5093157;28;20406;-65
2023/04/19 07:02:15;;;;;;;7.22;4.38;;;;;;;40.00;4.13;100810.72;5093160;28;20035;-65
2023/04/19 07:04:40;;;;;;;5.18;4.47;;;;;;;39.71;3.89;100818.06;5093785;28;20028;-66
2023/04/19 07:07:06;;;;;;;7.70;4.65;;;;;;;38.67;4.73;100789.22;5094208;28;20034;-65
2023/04/19 07:09:31;;;;;;;8.55;4.90;;;;;;;38.19;4.88;100794.25;5094029;28;20025;-63
2023/04/19 07:11:57;;;;;;;11.25;4.22;;;;;;;38.34;4.49;100798.91;5093095;28;20457;-65
2023/04/19 07:14:22;;;;;;;10.60;4.63;;;;;;;38.73;4.82;100791.72;5093928;28;20028;-65
2023/04/19 07:16:49;;;;;;;7.03;4.53;;;;;;;38.66;4.45;100793.16;5093390;28;20024;-65
2023/04/19 07:19:14;;;;;;;8.95;4.45;;;;;;;38.23;4.41;100788.06;5093522;28;20032;-64
2023/04/19 07:21:40;;;;;;;11.27;4.70;;;;;;;37.42;4.75;100791.63;5093583;28;20067;-66
2023/04/19 07:24:06;;;;;;;11.63;4.78;;;;;;;36.68;5.43;100794.66;5092864;28;20039;-65
2023/04/19 07:26:33;;;;;;;10.32;4.30;;;;;;;36.51;5.80;100790.13;5075496;28;20073;-64
2023/04/19 07:28:59;;;;;;;12.60;4.55;;;;;;;36.17;5.64;100783.09;5093418;28;20031;-65
2023/04/19 07:31:26;;;;;;;7.65;4.28;;;;;;;35.69;5.98;100785.03;5093047;28;20108;-64
2023/04/19 07:33:52;;;;;;;8.07;4.38;;;;;;;35.19;6.13;100783.28;5085563;28;20458;-65
2023/04/19 07:36:18;;;;;;;10.35;4.30;;;;;;;35.76;5.95;100774.50;5089635;28;20039;-63
2023/04/19 07:38:44;;;;;;;10.35;4.22;;;;;;;36.50;5.63;100780.09;5092050;28;20385;-65
2023/04/19 07:41:09;;;;;;;6.18;4.53;;;;;;;36.26;5.39;100782.56;5075355;28;20032;-62
2023/04/19 07:43:36;;;;;;;6.40;4.43;;;;;;;35.31;5.83;100797.03;5093076;28;20462;-64
2023/04/19 07:46:08;;;;;;;7.57;4.30;;;;;;;34.33;5.81;100782.13;5074542;28;20147;-64
2023/04/19 07:48:33;;;;;;;7.60;4.20;;;;;;;33.91;6.42;100775.19;5092564;28;20035;-63
2023/04/19 07:51:18;;;;;;;10.55;3.95;;;;;;;33.47;6.72;100787.91;5092934;28;20032;-64
2023/04/19 07:53:45;;;;;;;8.85;3.67;;;;;;;33.52;6.88;100789.94;5093027;28;20117;-63
2023/04/19 07:56:11;;;;;;;12.10;3.92;;;;;;;34.05;6.38;100790.41;5092602;28;20024;-63
2023/04/19 07:58:38;;;;;;;7.55;3.42;;;;;;;33.94;6.58;100769.13;5092002;28;20633;-63
2023/04/19 08:01:04;;;;;;;5.45;4.03;;;;;;;34.19;6.56;100792.81;5073849;28;20089;-64
2023/04/19 08:03:30;;;;;;;7.65;4.20;;;;;;;33.97;6.58;100778.91;5091150;28;20027;-63
2023/04/19 08:05:57;;;;;;;8.55;3.83;;;;;;;33.63;6.55;100780.66;5073608;28;20085;-64
2023/04/19 08:08:23;;;;;;;9.43;4.30;;;;;;;32.49;7.49;100787.00;5073184;28;20138;-66
2023/04/19 08:10:49;;;;;;;5.60;3.50;;;;;;;30.69;8.25;100798.28;5091275;28;20039;-65
2023/04/19 08:13:15;;;;;;;6.00;3.92;;;;;;;28.85;9.41;100782.03;5073133;28;20020;-66
2023/04/19 08:15:40;;;;;;;7.88;4.07;;;;;;;27.34;10.17;100779.09;5091860;28;20039;-62
2023/04/19 08:18:06;;;;;;;6.80;4.28;;;;;;;26.32;11.04;100781.84;5090188;28;20405;-63
2023/04/19 08:20:32;;;;;;;7.85;4.13;;;;;;;25.65;11.77;100794.13;5089765;28;20363;-63
2023/04/19 08:22:59;;;;;;;8.93;4.28;;;;;;;24.82;12.43;100788.28;5071648;28;20036;-63
2023/04/19 08:25:27;;;;;;;8.38;4.72;;;;;;;24.00;12.84;100786.44;5072126;28;20035;-65
2023/04/19 08:27:54;;;;;;;7.00;4.82;;;;;;;23.11;13.72;100781.63;5090223;28;20366;-63
2023/04/19 08:30:20;;;;;;;10.77;4.80;;;;;;;22.59;14.13;100784.03;5072918;28;20027;-64
2023/04/19 08:32:45;;;;;;;9.70;4.70;;;;;;;21.59;15.13;100786.25;5090063;28;20042;-66
2023/04/19 08:35:12;;;;;;;9.93;4.80;;;;;;;21.13;15.96;100756.84;5088737;28;20048;-65
2023/04/19 08:37:38;;;;;;;13.48;4.97;;;;;;;20.93;16.46;100785.25;5091313;28;20028;-65
2023/04/19 08:40:04;;;;;;;7.00;5.10;;;;;;;20.88;15.96;100797.66;5087107;28;20474;-62
2023/04/19 08:42:30;;;;;;;11.88;5.20;;;;;;;20.60;16.32;100778.88;5092212;28;20185;-70
2023/04/19 08:45:01;;;;;;;8.23;5.25;;;;;;;20.34;16.47;100777.09;5090948;28;20056;-61
2023/04/19 08:47:27;;;;;;;8.25;5.00;;;;;;;20.31;16.75;100780.97;5087875;28;20035;-62
2023/04/19 08:49:55;;;;;;;9.82;4.68;;;;;;;20.33;16.88;100778.94;5089914;28;20036;-61
2023/04/19 08:52:21;;;;;;;7.93;5.07;;;;;;;20.42;16.42;100785.28;5069933;28;20038;-59
2023/04/19 08:54:47;;;;;;;5.55;4.80;;;;;;;20.06;17.26;100778.16;5090916;28;20042;-61
2023/04/19 08:57:13;;;;;;;13.00;5.10;;;;;;;20.01;17.55;100774.22;5091145;28;20048;-62
2023/04/19 08:59:38;;;;;;;11.20;5.00;;;;;;;19.84;17.78;100775.97;5090068;28;20044;-61
2023/04/19 09:02:04;;;;;;;11.32;5.10;;;;;;;19.71;17.83;100758.28;5087541;28;20085;-63
2023/04/19 09:04:30;;;;;;;10.57;5.28;;;;;;;19.83;17.57;100737.09;5090168;28;20301;-60
2023/04/19 09:06:56;;;;;;;11.23;4.68;;;;;;;20.21;17.30;100770.25;5090728;28;20035;-62
2023/04/19 09:09:27;;;;;;;12.90;5.38;;;;;;;20.21;17.58;100770.25;5090326;28;20116;-62
2023/04/19 09:11:53;;;;;;;9.60;5.40;;;;;;;19.91;17.82;100780.66;5089796;28;20439;-62
2023/04/19 09:14:20;;;;;;;12.43;5.18;;;;;;;19.92;17.55;100771.47;5073182;28;20035;-59
2023/04/19 09:16:46;;;;;;;9.52;5.28;;;;;;;19.59;17.66;100763.13;5091447;28;20149;-58
2023/04/19 09:19:12;;;;;;;9.43;5.32;;;;;;;19.28;18.30;100752.69;5089633;28;20040;-67
2023/04/19 09:21:38;;;;;;;8.95;4.82;;;;;;;19.16;18.61;100751.28;5091430;28;20120;-61
2023/04/19 09:24:05;;;;;;;10.95;5.03;;;;;;;19.33;18.66;100752.25;5081415;28;20469;-63
2023/04/19 09:26:31;;;;;;;10.25;5.18;;;;;;;19.33;18.78;100744.97;5085232;28;20090;-66
2023/04/19 09:29:02;;;;;;;8.10;4.75;;;;;;;19.49;18.41;100748.78;5093832;28;20032;-61
2023/04/19 09:31:30;;;;;;;10.80;5.32;;;;;;;19.62;18.66;100749.22;5076054;28;20031;-60
2023/04/19 09:33:56;;;;;;;13.15;4.75;;;;;;;19.63;18.54;100764.50;5093405;28;20028;-62
2023/04/19 09:36:33;;;;;;;7.70;5.25;;;;;;;19.75;17.69;100754.22;5093810;28;20034;-65
2023/04/19 09:38:59;;;;;;;8.05;5.07;;;;;;;19.51;18.04;100742.19;5073400;28;20354;-63
2023/04/19 09:41:25;;;;;;;14.20;5.50;;;;;;;19.15;18.67;100739.53;5091123;28;20032;-62
2023/04/19 09:43:51;;;;;;;7.47;5.10;;;;;;;19.13;18.42;100747.00;5093607;28;20028;-64
2023/04/19 09:46:36;;;;;;;10.25;4.90;;;;;;;19.24;18.66;100762.19;5092431;28;20051;-61
2023/04/19 09:49:25;;;;;;;9.90;4.70;;;;;;;18.98;18.42;100718.69;5092043;28;21020;-62
2023/04/19 09:51:53;;;;;;;8.02;4.78;;;;;;;18.86;19.13;100707.25;5094505;28;20028;-62
2023/04/19 09:54:21;;;;;;;10.38;4.40;;;;;;;19.14;18.79;100726.97;5055941;28;20542;-63
2023/04/19 09:56:48;;;;;;;9.75;5.13;;;;;;;19.25;19.00;100725.88;5074410;28;20025;-63
2023/04/19 09:59:14;;;;;;;11.90;5.45;;;;;;;19.13;18.95;100710.88;5080040;28;20055;-64
2023/04/19 10:01:45;;;;;;;12.90;5.03;;;;;;;19.45;19.10;100736.53;5093401;28;20866;-60
2023/04/19 10:04:13;;;;;;;14.02;4.90;;;;;;;19.48;19.09;100733.50;5094086;28;20103;-64
2023/04/19 10:06:40;;;;;;;8.82;4.72;;;;;;;19.56;18.57;100741.72;5076219;28;20028;-63
2023/04/19 10:09:07;;;;;;;11.02;5.07;;;;;;;19.69;18.56;100743.13;5076382;28;20344;-67
2023/04/19 10:11:40;;;;;;;10.73;5.03;;;;;;;19.44;18.68;100735.69;5092252;28;20036;-64
2023/04/19 10:14:08;;;;;;;6.22;4.95;;;;;;;19.27;19.16;100736.59;5092983;28;20112;-59
2023/04/19 10:16:35;;;;;;;6.78;4.95;;;;;;;19.11;19.31;100724.59;5093079;28;20459;-59
2023/04/19 10:19:08;;;;;;;8.77;5.15;;;;;;;18.59;19.99;100706.31;5091799;28;20088;-65
2023/04/19 10:21:34;;;;;;;8.80;5.00;;;;;;;18.72;20.59;100728.47;5092467;28;20090;-62
2023/04/19 10:24:01;;;;;;;8.27;5.25;;;;;;;18.82;20.03;100708.56;5092926;28;20024;-62
2023/04/19 10:26:27;;;;;;;7.97;5.15;;;;;;;19.15;19.72;100733.28;5093280;28;20450;-59
2023/04/19 10:28:55;;;;;;;9.80;5.45;;;;;;;19.15;19.73;100725.13;5094008;28;20365;-62
2023/04/19 10:31:22;;;;;;;6.20;5.10;;;;;;;19.23;19.87;100717.03;5093655;28;20036;-61
2023/04/19 10:33:50;;;;;;;6.20;4.85;;;;;;;19.35;20.19;100718.50;5093740;28;20362;-62
2023/04/19 10:36:16;;;;;;;8.43;4.80;;;;;;;19.35;19.59;100712.19;5093089;28;20032;-60
2023/04/19 10:38:54;;;;;;;9.40;4.97;;;;;;;19.20;19.72;100717.38;5094484;28;20040;-67
2023/04/19 10:41:21;;;;;;;9.65;4.65;;;;;;;18.70;20.20;100695.22;5092642;28;20419;-65
2023/04/19 10:44:08;;;;;;;6.80;4.63;;;;;;;18.97;20.27;100714.28;5075654;28;20064;-63
2023/04/19 10:46:34;;;;;;;9.52;4.90;;;;;;;19.17;19.62;100712.25;5094180;28;20047;-66
2023/04/19 10:49:01;;;;;;;9.73;4.80;;;;;;;19.08;19.73;100720.34;5074772;28;20082;-66
2023/04/19 10:51:31;;;;;;;16.88;5.28;;;;;;;18.73;20.11;100704.94;5093063;28;20422;-65
2023/04/19 10:53:58;;;;;;;8.07;4.80;;;;;;;18.59;20.69;100714.47;5093819;28;20024;-63
2023/04/19 10:56:33;;;;;;;9.88;4.90;;;;;;;18.77;20.34;100709.03;5093952;28;20032;-62
2023/04/19 10:58:59;;;;;;;21.15;5.05;;;;;;;18.90;20.42;100705.91;5093799;28;20032;-62
2023/04/19 11:01:42;;;;;;;8.50;4.97;;;;;;;19.10;20.17;100705.75;5093271;28;20427;-63
2023/04/19 11:04:08;;;;;;;7.53;4.80;;;;;;;19.13;20.06;100700.00;5092578;28;20067;-64
2023/04/19 11:07:00;;;;;;;9.40;4.50;;;;;;;19.21;19.74;100697.34;5075405;28;20036;-62
2023/04/19 11:09:29;;;;;;;9.77;4.72;;;;;;;19.33;19.58;100692.50;5083921;28;20106;-62
2023/04/19 11:12:00;;;;;;;8.70;4.75;;;;;;;19.07;19.94;100691.50;5093646;28;20043;-62
2023/04/19 11:14:28;;;;;;;9.30;4.60;;;;;;;18.95;20.53;100679.16;5093270;28;20064;-62
2023/04/19 11:16:54;;;;;;;8.88;5.47;;;;;;;19.13;19.93;100695.44;5093420;28;20046;-62
2023/04/19 11:19:19;;;;;;;10.48;4.72;;;;;;;18.93;20.01;100689.31;5093002;28;20035;-63